sensor_id;sensor_type;location;lat;lon;timestamp;temperature;humidity
74869;DHT22;63419;42.262;12.210;2023-08-08T00:00:47;16.10;99.90
74869;DHT22;63419;42.262;12.210;2023-08-08T00:03:14;16.10;99.90
74869;DHT22;63419;42.262;12.210;2023-08-08T00:05:40;16.00;99.90
74869;DHT22;63419;42.262;12.210;2023-08-08T00:08:06;16.10;99.90
74869;DHT22;63419;42.262;12.210;2023-08-08T00:10:32;16.10;99.90
74869;DHT22;63419;42.262;12.210;2023-08-08T00:12:58;16.10;99.90
74869;DHT22;63419;42.262;12.210;2023-08-08T00:15:24;16.00;99.90
74869;DHT22;63419;42.262;12.210;2023-08-08T00:17:50;16.00;99.90
74869;DHT22;63419;42.262;12.210;2023-08-08T00:20:17;16.00;99.90
74869;DHT22;63419;42.262;12.210;2023-08-08T00:22:43;16.00;99.90
74869;DHT22;63419;42.262;12.210;2023-08-08T00:25:09;16.00;99.90
74869;DHT22;63419;42.262;12.210;2023-08-08T00:27:35;16.10;99.90
74869;DHT22;63419;42.262;12.210;2023-08-08T00:30:08;16.50;99.90
74869;DHT22;63419;42.262;12.210;2023-08-08T00:32:35;16.60;99.90
74869;DHT22;63419;42.262;12.210;2023-08-08T00:35:01;16.60;99.90
74869;DHT22;63419;42.262;12.210;2023-08-08T00:37:27;16.40;99.90
74869;DHT22;63419;42.262;12.210;2023-08-08T00:39:53;16.30;99.90
74869;DHT22;63419;42.262;12.210;2023-08-08T00:42:19;16.50;99.90
74869;DHT22;63419;42.262;12.210;2023-08-08T00:44:45;16.70;99.90
74869;DHT22;63419;42.262;12.210;2023-08-08T00:47:12;16.80;99.90
74869;DHT22;63419;42.262;12.210;2023-08-08T00:49:38;16.80;99.90
74869;DHT22;63419;42.262;12.210;2023-08-08T00:52:06;16.70;99.90
74869;DHT22;63419;42.262;12.210;2023-08-08T00:54:33;16.70;99.90
74869;DHT22;63419;42.262;12.210;2023-08-08T00:56:59;16.60;99.90
74869;DHT22;63419;42.262;12.210;2023-08-08T00:59:26;16.70;99.90
74869;DHT22;63419;42.262;12.210;2023-08-08T01:01:52;16.70;99.90
74869;DHT22;63419;42.262;12.210;2023-08-08T01:04:18;16.60;99.90
74869;DHT22;63419;42.262;12.210;2023-08-08T01:09:44;16.60;99.90
74869;DHT22;63419;42.262;12.210;2023-08-08T01:12:14;16.60;99.90
74869;DHT22;63419;42.262;12.210;2023-08-08T01:14:42;16.70;99.90
74869;DHT22;63419;42.262;12.210;2023-08-08T01:17:11;16.70;99.90
74869;DHT22;63419;42.262;12.210;2023-08-08T01:19:38;16.80;99.90
74869;DHT22;63419;42.262;12.210;2023-08-08T01:22:06;16.80;99.90
74869;DHT22;63419;42.262;12.210;2023-08-08T01:24:40;16.80;99.90
74869;DHT22;63419;42.262;12.210;2023-08-08T01:27:07;16.70;99.90
74869;DHT22;63419;42.262;12.210;2023-08-08T01:29:33;16.60;99.90
74869;DHT22;63419;42.262;12.210;2023-08-08T01:31:59;16.70;99.90
74869;DHT22;63419;42.262;12.210;2023-08-08T01:34:25;16.70;99.90
74869;DHT22;63419;42.262;12.210;2023-08-08T01:37:04;16.60;99.90
74869;DHT22;63419;42.262;12.210;2023-08-08T01:39:38;16.60;99.90
74869;DHT22;63419;42.262;12.210;2023-08-08T01:42:07;16.60;99.90
74869;DHT22;63419;42.262;12.210;2023-08-08T01:44:33;16.60;99.90
74869;DHT22;63419;42.262;12.210;2023-08-08T01:47:00;16.70;99.90
74869;DHT22;63419;42.262;12.210;2023-08-08T01:49:27;16.70;99.90
74869;DHT22;63419;42.262;12.210;2023-08-08T01:51:53;16.70;99.90
74869;DHT22;63419;42.262;12.210;2023-08-08T01:54:19;16.80;99.90
74869;DHT22;63419;42.262;12.210;2023-08-08T01:56:46;16.80;99.90
74869;DHT22;63419;42.262;12.210;2023-08-08T01:59:12;16.80;99.90
74869;DHT22;63419;42.262;12.210;2023-08-08T02:01:38;16.90;99.90
74869;DHT22;63419;42.262;12.210;2023-08-08T02:04:04;17.00;99.90
74869;DHT22;63419;42.262;12.210;2023-08-08T02:06:30;17.00;99.90
74869;DHT22;63419;42.262;12.210;2023-08-08T02:08:57;17.10;99.90
74869;DHT22;63419;42.262;12.210;2023-08-08T02:11:24;17.30;99.90
74869;DHT22;63419;42.262;12.210;2023-08-08T02:13:49;17.30;99.90
74869;DHT22;63419;42.262;12.210;2023-08-08T02:16:16;17.30;99.90
74869;DHT22;63419;42.262;12.210;2023-08-08T02:18:42;17.40;99.90
74869;DHT22;63419;42.262;12.210;2023-08-08T02:21:08;17.50;99.90
74869;DHT22;63419;42.262;12.210;2023-08-08T02:23:35;17.60;99.90
74869;DHT22;63419;42.262;12.210;2023-08-08T02:26:02;17.60;99.90
74869;DHT22;63419;42.262;12.210;2023-08-08T02:28:29;17.70;99.90
74869;DHT22;63419;42.262;12.210;2023-08-08T02:30:55;17.70;99.90
74869;DHT22;63419;42.262;12.210;2023-08-08T02:33:21;17.70;99.90
74869;DHT22;63419;42.262;12.210;2023-08-08T02:35:47;17.70;99.90
74869;DHT22;63419;42.262;12.210;2023-08-08T02:38:13;17.80;99.90
74869;DHT22;63419;42.262;12.210;2023-08-08T02:40:39;17.70;99.90
74869;DHT22;63419;42.262;12.210;2023-08-08T02:43:05;17.70;99.90
74869;DHT22;63419;42.262;12.210;2023-08-08T02:45:31;17.50;99.90
74869;DHT22;63419;42.262;12.210;2023-08-08T02:47:58;17.50;99.90
74869;DHT22;63419;42.262;12.210;2023-08-08T02:50:24;17.30;99.90
74869;DHT22;63419;42.262;12.210;2023-08-08T02:52:50;17.30;99.90
74869;DHT22;63419;42.262;12.210;2023-08-08T02:55:17;17.30;99.90
74869;DHT22;63419;42.262;12.210;2023-08-08T02:57:43;17.40;99.90
74869;DHT22;63419;42.262;12.210;2023-08-08T03:00:11;17.20;99.90
74869;DHT22;63419;42.262;12.210;2023-08-08T03:02:37;17.20;99.90
74869;DHT22;63419;42.262;12.210;2023-08-08T03:05:04;17.00;99.90
74869;DHT22;63419;42.262;12.210;2023-08-08T03:07:31;17.00;99.90
74869;DHT22;63419;42.262;12.210;2023-08-08T03:09:57;17.00;99.90
74869;DHT22;63419;42.262;12.210;2023-08-08T03:12:23;17.20;99.90
74869;DHT22;63419;42.262;12.210;2023-08-08T03:14:49;17.20;99.90
74869;DHT22;63419;42.262;12.210;2023-08-08T03:17:16;17.40;99.90
74869;DHT22;63419;42.262;12.210;2023-08-08T03:19:42;17.40;99.90
74869;DHT22;63419;42.262;12.210;2023-08-08T03:22:09;17.40;99.90
74869;DHT22;63419;42.262;12.210;2023-08-08T03:24:35;17.30;99.90
74869;DHT22;63419;42.262;12.210;2023-08-08T03:27:01;17.20;99.90
74869;DHT22;63419;42.262;12.210;2023-08-08T03:29:28;17.10;99.90
74869;DHT22;63419;42.262;12.210;2023-08-08T03:31:54;16.90;99.90
74869;DHT22;63419;42.262;12.210;2023-08-08T03:34:20;16.70;99.90
74869;DHT22;63419;42.262;12.210;2023-08-08T03:36:46;16.60;99.90
74869;DHT22;63419;42.262;12.210;2023-08-08T03:39:12;16.40;99.90
74869;DHT22;63419;42.262;12.210;2023-08-08T03:41:39;16.00;99.90
74869;DHT22;63419;42.262;12.210;2023-08-08T03:44:05;15.90;99.90
74869;DHT22;63419;42.262;12.210;2023-08-08T03:46:31;16.10;99.90
74869;DHT22;63419;42.262;12.210;2023-08-08T03:49:16;16.20;99.90
74869;DHT22;63419;42.262;12.210;2023-08-08T03:51:42;16.30;99.90
74869;DHT22;63419;42.262;12.210;2023-08-08T03:54:08;16.20;99.90
74869;DHT22;63419;42.262;12.210;2023-08-08T03:56:34;16.20;99.90
74869;DHT22;63419;42.262;12.210;2023-08-08T03:59:00;16.10;99.90
74869;DHT22;63419;42.262;12.210;2023-08-08T04:01:26;15.90;99.90
74869;DHT22;63419;42.262;12.210;2023-08-08T04:03:53;15.70;99.90
74869;DHT22;63419;42.262;12.210;2023-08-08T04:06:19;15.50;99.90
74869;DHT22;63419;42.262;12.210;2023-08-08T04:08:45;15.20;99.90
74869;DHT22;63419;42.262;12.210;2023-08-08T04:11:11;14.80;99.90
74869;DHT22;63419;42.262;12.210;2023-08-08T04:13:37;14.80;99.90
74869;DHT22;63419;42.262;12.210;2023-08-08T04:16:03;14.80;99.90
74869;DHT22;63419;42.262;12.210;2023-08-08T04:18:29;14.70;99.90
74869;DHT22;63419;42.262;12.210;2023-08-08T04:20:55;14.70;99.90
74869;DHT22;63419;42.262;12.210;2023-08-08T04:23:21;14.60;99.90
74869;DHT22;63419;42.262;12.210;2023-08-08T04:25:54;14.50;99.90
74869;DHT22;63419;42.262;12.210;2023-08-08T04:28:20;14.30;99.90
74869;DHT22;63419;42.262;12.210;2023-08-08T04:30:46;14.20;99.90
74869;DHT22;63419;42.262;12.210;2023-08-08T04:33:12;14.20;99.90
74869;DHT22;63419;42.262;12.210;2023-08-08T04:35:38;14.30;99.90
74869;DHT22;63419;42.262;12.210;2023-08-08T04:38:05;14.40;99.90
74869;DHT22;63419;42.262;12.210;2023-08-08T04:40:31;14.40;99.90
74869;DHT22;63419;42.262;12.210;2023-08-08T04:42:57;14.40;99.90
74869;DHT22;63419;42.262;12.210;2023-08-08T04:45:23;14.50;99.90
74869;DHT22;63419;42.262;12.210;2023-08-08T04:47:50;14.60;99.90
74869;DHT22;63419;42.262;12.210;2023-08-08T04:50:16;14.50;99.90
74869;DHT22;63419;42.262;12.210;2023-08-08T04:52:42;14.60;99.90
74869;DHT22;63419;42.262;12.210;2023-08-08T04:55:09;14.70;99.90
74869;DHT22;63419;42.262;12.210;2023-08-08T04:57:35;14.90;99.90
74869;DHT22;63419;42.262;12.210;2023-08-08T05:00:01;15.30;99.90
74869;DHT22;63419;42.262;12.210;2023-08-08T05:02:30;15.50;99.90
74869;DHT22;63419;42.262;12.210;2023-08-08T05:04:57;15.40;99.90
74869;DHT22;63419;42.262;12.210;2023-08-08T05:07:23;15.40;99.90
74869;DHT22;63419;42.262;12.210;2023-08-08T05:09:49;15.50;99.90
74869;DHT22;63419;42.262;12.210;2023-08-08T05:12:15;15.60;99.90
74869;DHT22;63419;42.262;12.210;2023-08-08T05:14:41;15.50;99.90
74869;DHT22;63419;42.262;12.210;2023-08-08T05:17:07;15.30;99.90
74869;DHT22;63419;42.262;12.210;2023-08-08T05:19:33;15.40;99.90
74869;DHT22;63419;42.262;12.210;2023-08-08T05:21:59;15.30;99.90
74869;DHT22;63419;42.262;12.210;2023-08-08T05:24:29;15.30;99.90
74869;DHT22;63419;42.262;12.210;2023-08-08T05:26:56;15.40;99.90
74869;DHT22;63419;42.262;12.210;2023-08-08T05:29:22;15.40;99.90
74869;DHT22;63419;42.262;12.210;2023-08-08T05:31:48;15.60;99.90
74869;DHT22;63419;42.262;12.210;2023-08-08T05:34:14;15.60;99.90
74869;DHT22;63419;42.262;12.210;2023-08-08T05:36:40;15.70;99.90
74869;DHT22;63419;42.262;12.210;2023-08-08T05:39:07;15.70;99.90
74869;DHT22;63419;42.262;12.210;2023-08-08T05:41:35;15.80;99.90
74869;DHT22;63419;42.262;12.210;2023-08-08T05:44:01;15.80;99.90
74869;DHT22;63419;42.262;12.210;2023-08-08T05:46:27;15.80;99.90
74869;DHT22;63419;42.262;12.210;2023-08-08T05:48:53;15.70;99.90
74869;DHT22;63419;42.262;12.210;2023-08-08T05:51:19;15.60;99.90
74869;DHT22;63419;42.262;12.210;2023-08-08T05:53:45;15.50;99.90
74869;DHT22;63419;42.262;12.210;2023-08-08T05:56:11;15.50;99.90
74869;DHT22;63419;42.262;12.210;2023-08-08T05:58:37;15.50;99.90
74869;DHT22;63419;42.262;12.210;2023-08-08T06:01:04;15.60;99.90
74869;DHT22;63419;42.262;12.210;2023-08-08T06:03:35;15.60;99.90
74869;DHT22;63419;42.262;12.210;2023-08-08T06:06:03;15.80;99.90
74869;DHT22;63419;42.262;12.210;2023-08-08T06:08:30;16.10;99.90
74869;DHT22;63419;42.262;12.210;2023-08-08T06:10:57;16.20;99.90
74869;DHT22;63419;42.262;12.210;2023-08-08T06:13:23;16.20;99.90
74869;DHT22;63419;42.262;12.210;2023-08-08T06:15:49;16.40;99.90
74869;DHT22;63419;42.262;12.210;2023-08-08T06:18:16;16.50;99.90
74869;DHT22;63419;42.262;12.210;2023-08-08T06:20:43;16.50;99.90
74869;DHT22;63419;42.262;12.210;2023-08-08T06:23:10;16.70;99.90
74869;DHT22;63419;42.262;12.210;2023-08-08T06:25:36;16.80;99.90
74869;DHT22;63419;42.262;12.210;2023-08-08T06:28:04;16.90;99.90
74869;DHT22;63419;42.262;12.210;2023-08-08T06:30:32;17.10;99.90
74869;DHT22;63419;42.262;12.210;2023-08-08T06:32:58;17.20;99.90
74869;DHT22;63419;42.262;12.210;2023-08-08T06:35:24;17.20;99.90
74869;DHT22;63419;42.262;12.210;2023-08-08T06:37:50;17.30;99.90
74869;DHT22;63419;42.262;12.210;2023-08-08T06:40:17;17.40;99.90
74869;DHT22;63419;42.262;12.210;2023-08-08T06:42:43;17.60;99.90
74869;DHT22;63419;42.262;12.210;2023-08-08T06:45:09;17.80;99.90
74869;DHT22;63419;42.262;12.210;2023-08-08T06:47:35;18.00;99.90
74869;DHT22;63419;42.262;12.210;2023-08-08T06:50:03;18.30;99.90
74869;DHT22;63419;42.262;12.210;2023-08-08T06:52:30;18.30;99.90
74869;DHT22;63419;42.262;12.210;2023-08-08T06:54:57;18.50;99.90
74869;DHT22;63419;42.262;12.210;2023-08-08T06:57:23;18.60;99.90
74869;DHT22;63419;42.262;12.210;2023-08-08T06:59:49;18.70;99.90
74869;DHT22;63419;42.262;12.210;2023-08-08T07:02:19;18.90;99.90
74869;DHT22;63419;42.262;12.210;2023-08-08T07:04:46;19.10;99.90
74869;DHT22;63419;42.262;12.210;2023-08-08T07:07:12;19.30;99.90
74869;DHT22;63419;42.262;12.210;2023-08-08T07:09:38;19.40;99.90
74869;DHT22;63419;42.262;12.210;2023-08-08T07:12:05;19.50;99.90
74869;DHT22;63419;42.262;12.210;2023-08-08T07:14:31;19.30;99.90
74869;DHT22;63419;42.262;12.210;2023-08-08T07:16:58;19.50;99.90
74869;DHT22;63419;42.262;12.210;2023-08-08T07:19:24;19.50;99.90
74869;DHT22;63419;42.262;12.210;2023-08-08T07:21:50;19.50;99.90
74869;DHT22;63419;42.262;12.210;2023-08-08T07:24:17;19.50;99.90
74869;DHT22;63419;42.262;12.210;2023-08-08T07:26:43;19.60;99.90
74869;DHT22;63419;42.262;12.210;2023-08-08T07:29:10;19.80;99.90
74869;DHT22;63419;42.262;12.210;2023-08-08T07:31:36;20.00;99.90
74869;DHT22;63419;42.262;12.210;2023-08-08T07:34:02;20.10;99.90
74869;DHT22;63419;42.262;12.210;2023-08-08T07:36:28;20.40;99.90
74869;DHT22;63419;42.262;12.210;2023-08-08T07:38:54;20.60;99.90
74869;DHT22;63419;42.262;12.210;2023-08-08T07:41:26;20.70;99.90
74869;DHT22;63419;42.262;12.210;2023-08-08T07:43:53;20.90;99.90
74869;DHT22;63419;42.262;12.210;2023-08-08T07:46:19;21.00;99.90
74869;DHT22;63419;42.262;12.210;2023-08-08T07:48:45;21.10;99.90
74869;DHT22;63419;42.262;12.210;2023-08-08T07:51:11;21.20;99.90
74869;DHT22;63419;42.262;12.210;2023-08-08T07:53:37;21.20;99.90
74869;DHT22;63419;42.262;12.210;2023-08-08T07:56:04;21.30;99.90
74869;DHT22;63419;42.262;12.210;2023-08-08T07:58:31;21.40;99.90
74869;DHT22;63419;42.262;12.210;2023-08-08T08:00:57;21.40;99.90
74869;DHT22;63419;42.262;12.210;2023-08-08T08:03:26;21.50;99.90
74869;DHT22;63419;42.262;12.210;2023-08-08T08:05:53;21.50;99.90
74869;DHT22;63419;42.262;12.210;2023-08-08T08:08:19;21.40;99.90
74869;DHT22;63419;42.262;12.210;2023-08-08T08:10:47;21.50;99.90
74869;DHT22;63419;42.262;12.210;2023-08-08T08:13:14;21.60;99.90
74869;DHT22;63419;42.262;12.210;2023-08-08T08:15:40;21.60;99.90
74869;DHT22;63419;42.262;12.210;2023-08-08T08:18:06;21.50;99.90
74869;DHT22;63419;42.262;12.210;2023-08-08T08:20:32;21.30;99.90
74869;DHT22;63419;42.262;12.210;2023-08-08T08:22:59;21.60;99.90
74869;DHT22;63419;42.262;12.210;2023-08-08T08:25:25;21.80;99.90
74869;DHT22;63419;42.262;12.210;2023-08-08T08:27:51;21.80;99.90
74869;DHT22;63419;42.262;12.210;2023-08-08T08:30:17;21.30;99.90
74869;DHT22;63419;42.262;12.210;2023-08-08T08:32:45;21.30;99.90
74869;DHT22;63419;42.262;12.210;2023-08-08T08:35:11;21.20;99.90
74869;DHT22;63419;42.262;12.210;2023-08-08T08:37:38;21.30;99.90
74869;DHT22;63419;42.262;12.210;2023-08-08T08:40:05;21.40;99.90
74869;DHT22;63419;42.262;12.210;2023-08-08T08:42:31;21.30;99.90
74869;DHT22;63419;42.262;12.210;2023-08-08T08:44:59;21.50;99.90
74869;DHT22;63419;42.262;12.210;2023-08-08T08:47:30;21.60;99.90
74869;DHT22;63419;42.262;12.210;2023-08-08T08:49:58;21.60;99.90
74869;DHT22;63419;42.262;12.210;2023-08-08T08:52:28;21.70;99.90
74869;DHT22;63419;42.262;12.210;2023-08-08T08:54:54;21.80;99.90
74869;DHT22;63419;42.262;12.210;2023-08-08T08:57:23;22.00;99.90
74869;DHT22;63419;42.262;12.210;2023-08-08T08:59:50;22.30;99.90
74869;DHT22;63419;42.262;12.210;2023-08-08T09:02:18;22.80;99.90
74869;DHT22;63419;42.262;12.210;2023-08-08T09:04:45;23.10;99.40
74869;DHT22;63419;42.262;12.210;2023-08-08T09:07:12;23.10;99.50
74869;DHT22;63419;42.262;12.210;2023-08-08T09:09:43;23.40;98.10
74869;DHT22;63419;42.262;12.210;2023-08-08T09:12:10;23.60;97.60
74869;DHT22;63419;42.262;12.210;2023-08-08T09:14:39;23.70;97.80
74869;DHT22;63419;42.262;12.210;2023-08-08T09:17:11;23.30;99.40
74869;DHT22;63419;42.262;12.210;2023-08-08T09:19:42;23.20;98.20
74869;DHT22;63419;42.262;12.210;2023-08-08T09:22:09;23.20;97.30
74869;DHT22;63419;42.262;12.210;2023-08-08T09:24:40;23.00;96.00
74869;DHT22;63419;42.262;12.210;2023-08-08T09:27:10;23.30;98.90
74869;DHT22;63419;42.262;12.210;2023-08-08T09:29:37;23.70;96.80
74869;DHT22;63419;42.262;12.210;2023-08-08T09:32:04;24.10;97.00
74869;DHT22;63419;42.262;12.210;2023-08-08T09:34:31;23.70;96.80
74869;DHT22;63419;42.262;12.210;2023-08-08T09:36:58;23.90;95.80
74869;DHT22;63419;42.262;12.210;2023-08-08T09:39:24;24.40;95.70
74869;DHT22;63419;42.262;12.210;2023-08-08T09:41:50;24.90;94.20
74869;DHT22;63419;42.262;12.210;2023-08-08T09:44:16;25.30;93.00
74869;DHT22;63419;42.262;12.210;2023-08-08T09:46:43;25.10;92.20
74869;DHT22;63419;42.262;12.210;2023-08-08T09:49:13;25.10;93.50
74869;DHT22;63419;42.262;12.210;2023-08-08T09:51:41;24.80;93.20
74869;DHT22;63419;42.262;12.210;2023-08-08T09:54:08;24.50;92.70
74869;DHT22;63419;42.262;12.210;2023-08-08T09:56:36;24.10;92.70
74869;DHT22;63419;42.262;12.210;2023-08-08T09:59:04;24.50;93.00
74869;DHT22;63419;42.262;12.210;2023-08-08T10:01:32;25.00;92.80
74869;DHT22;63419;42.262;12.210;2023-08-08T10:03:58;25.50;91.60
74869;DHT22;63419;42.262;12.210;2023-08-08T10:06:26;25.50;93.40
74869;DHT22;63419;42.262;12.210;2023-08-08T10:08:53;25.70;91.20
74869;DHT22;63419;42.262;12.210;2023-08-08T10:11:19;25.80;92.10
74869;DHT22;63419;42.262;12.210;2023-08-08T10:13:52;26.60;87.20
74869;DHT22;63419;42.262;12.210;2023-08-08T10:16:19;26.80;90.20
74869;DHT22;63419;42.262;12.210;2023-08-08T10:18:57;26.60;90.10
74869;DHT22;63419;42.262;12.210;2023-08-08T10:21:25;27.20;91.70
74869;DHT22;63419;42.262;12.210;2023-08-08T10:24:10;26.10;91.90
74869;DHT22;63419;42.262;12.210;2023-08-08T10:26:57;26.20;91.90
74869;DHT22;63419;42.262;12.210;2023-08-08T10:29:26;26.10;93.40
74869;DHT22;63419;42.262;12.210;2023-08-08T10:32:01;25.90;91.60
74869;DHT22;63419;42.262;12.210;2023-08-08T10:34:47;26.40;92.00
74869;DHT22;63419;42.262;12.210;2023-08-08T10:37:16;25.60;93.90
74869;DHT22;63419;42.262;12.210;2023-08-08T10:39:59;26.00;93.50
74869;DHT22;63419;42.262;12.210;2023-08-08T10:42:32;26.00;88.90
74869;DHT22;63419;42.262;12.210;2023-08-08T10:45:13;25.50;91.40
74869;DHT22;63419;42.262;12.210;2023-08-08T10:47:41;26.00;89.60
74869;DHT22;63419;42.262;12.210;2023-08-08T10:50:21;26.10;89.80
74869;DHT22;63419;42.262;12.210;2023-08-08T10:55:30;26.40;90.30
74869;DHT22;63419;42.262;12.210;2023-08-08T10:58:12;27.40;85.10
74869;DHT22;63419;42.262;12.210;2023-08-08T11:00:45;29.70;83.70
74869;DHT22;63419;42.262;12.210;2023-08-08T11:03:11;30.90;83.50
74869;DHT22;63419;42.262;12.210;2023-08-08T11:05:38;30.90;78.80
74869;DHT22;63419;42.262;12.210;2023-08-08T11:08:06;27.80;81.00
74869;DHT22;63419;42.262;12.210;2023-08-08T11:10:37;26.80;85.30
74869;DHT22;63419;42.262;12.210;2023-08-08T11:13:06;29.50;82.70
74869;DHT22;63419;42.262;12.210;2023-08-08T11:15:34;31.30;81.70
74869;DHT22;63419;42.262;12.210;2023-08-08T11:18:02;32.40;78.90
74869;DHT22;63419;42.262;12.210;2023-08-08T11:20:34;33.40;79.90
74869;DHT22;63419;42.262;12.210;2023-08-08T11:23:01;32.30;75.30
74869;DHT22;63419;42.262;12.210;2023-08-08T11:25:31;28.80;75.60
74869;DHT22;63419;42.262;12.210;2023-08-08T11:27:58;29.80;75.80
74869;DHT22;63419;42.262;12.210;2023-08-08T11:30:29;31.00;74.50
74869;DHT22;63419;42.262;12.210;2023-08-08T11:33:00;29.90;74.40
74869;DHT22;63419;42.262;12.210;2023-08-08T11:35:27;28.90;77.80
74869;DHT22;63419;42.262;12.210;2023-08-08T11:37:53;29.60;77.00
74869;DHT22;63419;42.262;12.210;2023-08-08T11:40:23;32.20;72.60
74869;DHT22;63419;42.262;12.210;2023-08-08T11:42:51;31.90;73.20
74869;DHT22;63419;42.262;12.210;2023-08-08T11:45:19;33.80;69.20
74869;DHT22;63419;42.262;12.210;2023-08-08T11:47:50;31.80;67.30
74869;DHT22;63419;42.262;12.210;2023-08-08T11:50:20;29.90;67.60
74869;DHT22;63419;42.262;12.210;2023-08-08T11:52:50;32.20;69.50
74869;DHT22;63419;42.262;12.210;2023-08-08T11:55:18;31.80;72.70
74869;DHT22;63419;42.262;12.210;2023-08-08T11:57:48;29.50;70.30
74869;DHT22;63419;42.262;12.210;2023-08-08T12:00:15;30.50;73.30
74869;DHT22;63419;42.262;12.210;2023-08-08T12:02:42;30.20;67.00
74869;DHT22;63419;42.262;12.210;2023-08-08T12:05:13;31.40;69.30
74869;DHT22;63419;42.262;12.210;2023-08-08T12:07:43;30.50;68.20
74869;DHT22;63419;42.262;12.210;2023-08-08T12:10:17;30.90;72.20
74869;DHT22;63419;42.262;12.210;2023-08-08T12:12:46;30.20;71.20
74869;DHT22;63419;42.262;12.210;2023-08-08T12:15:17;32.00;69.40
74869;DHT22;63419;42.262;12.210;2023-08-08T12:17:46;31.30;68.10
74869;DHT22;63419;42.262;12.210;2023-08-08T12:20:12;32.50;69.00
74869;DHT22;63419;42.262;12.210;2023-08-08T12:22:40;28.70;71.40
74869;DHT22;63419;42.262;12.210;2023-08-08T12:25:07;27.90;74.90
74869;DHT22;63419;42.262;12.210;2023-08-08T12:27:34;29.70;72.30
74869;DHT22;63419;42.262;12.210;2023-08-08T12:29:59;32.40;71.30
74869;DHT22;63419;42.262;12.210;2023-08-08T12:32:27;31.20;73.10
74869;DHT22;63419;42.262;12.210;2023-08-08T12:34:55;31.00;75.30
74869;DHT22;63419;42.262;12.210;2023-08-08T12:37:22;31.70;73.50
74869;DHT22;63419;42.262;12.210;2023-08-08T12:39:49;31.50;71.70
74869;DHT22;63419;42.262;12.210;2023-08-08T12:42:17;35.00;71.20
74869;DHT22;63419;42.262;12.210;2023-08-08T12:44:43;37.30;69.70
74869;DHT22;63419;42.262;12.210;2023-08-08T12:47:10;36.90;64.40
74869;DHT22;63419;42.262;12.210;2023-08-08T12:49:37;36.70;69.40
74869;DHT22;63419;42.262;12.210;2023-08-08T12:52:05;38.30;68.00
74869;DHT22;63419;42.262;12.210;2023-08-08T12:54:31;36.90;67.70
74869;DHT22;63419;42.262;12.210;2023-08-08T12:56:57;36.30;66.50
74869;DHT22;63419;42.262;12.210;2023-08-08T12:59:23;32.30;68.80
74869;DHT22;63419;42.262;12.210;2023-08-08T13:01:49;31.80;69.90
74869;DHT22;63419;42.262;12.210;2023-08-08T13:04:15;33.20;69.80
74869;DHT22;63419;42.262;12.210;2023-08-08T13:06:41;29.50;89.10
74869;DHT22;63419;42.262;12.210;2023-08-08T13:09:07;27.70;93.30
74869;DHT22;63419;42.262;12.210;2023-08-08T13:11:34;28.10;93.20
74869;DHT22;63419;42.262;12.210;2023-08-08T13:14:00;27.50;93.70
74869;DHT22;63419;42.262;12.210;2023-08-08T13:16:26;29.10;91.80
74869;DHT22;63419;42.262;12.210;2023-08-08T13:18:52;28.90;92.40
74869;DHT22;63419;42.262;12.210;2023-08-08T13:21:18;28.90;93.90
74869;DHT22;63419;42.262;12.210;2023-08-08T13:23:44;32.40;91.30
74869;DHT22;63419;42.262;12.210;2023-08-08T13:26:11;33.70;86.60
74869;DHT22;63419;42.262;12.210;2023-08-08T13:28:38;35.70;84.00
74869;DHT22;63419;42.262;12.210;2023-08-08T13:31:04;35.00;84.00
74869;DHT22;63419;42.262;12.210;2023-08-08T13:33:32;31.40;86.70
74869;DHT22;63419;42.262;12.210;2023-08-08T13:36:00;30.20;89.80
74869;DHT22;63419;42.262;12.210;2023-08-08T13:38:27;30.20;89.90
74869;DHT22;63419;42.262;12.210;2023-08-08T13:40:53;31.70;88.10
74869;DHT22;63419;42.262;12.210;2023-08-08T13:43:20;33.30;84.10
74869;DHT22;63419;42.262;12.210;2023-08-08T13:45:46;32.70;84.50
74869;DHT22;63419;42.262;12.210;2023-08-08T13:48:12;28.90;91.00
74869;DHT22;63419;42.262;12.210;2023-08-08T13:50:38;27.00;94.10
74869;DHT22;63419;42.262;12.210;2023-08-08T13:53:04;26.50;94.60
74869;DHT22;63419;42.262;12.210;2023-08-08T13:55:31;25.70;96.10
74869;DHT22;63419;42.262;12.210;2023-08-08T13:58:04;26.10;96.70
74869;DHT22;63419;42.262;12.210;2023-08-08T14:00:31;26.10;98.70
74869;DHT22;63419;42.262;12.210;2023-08-08T14:02:57;27.00;96.70
74869;DHT22;63419;42.262;12.210;2023-08-08T14:05:24;29.10;94.40
74869;DHT22;63419;42.262;12.210;2023-08-08T14:07:51;29.40;93.30
74869;DHT22;63419;42.262;12.210;2023-08-08T14:10:17;28.10;95.00
74869;DHT22;63419;42.262;12.210;2023-08-08T14:12:43;26.00;98.20
74869;DHT22;63419;42.262;12.210;2023-08-08T14:15:09;25.80;99.80
74869;DHT22;63419;42.262;12.210;2023-08-08T14:17:35;27.70;97.40
74869;DHT22;63419;42.262;12.210;2023-08-08T14:20:01;29.40;97.80
74869;DHT22;63419;42.262;12.210;2023-08-08T14:22:27;29.70;96.00
74869;DHT22;63419;42.262;12.210;2023-08-08T14:24:54;28.50;96.50
74869;DHT22;63419;42.262;12.210;2023-08-08T14:27:20;29.20;97.20
74869;DHT22;63419;42.262;12.210;2023-08-08T14:29:46;30.80;94.90
74869;DHT22;63419;42.262;12.210;2023-08-08T14:32:13;30.30;94.70
74869;DHT22;63419;42.262;12.210;2023-08-08T14:34:39;31.20;94.60
74869;DHT22;63419;42.262;12.210;2023-08-08T14:37:06;32.60;93.00
74869;DHT22;63419;42.262;12.210;2023-08-08T14:39:32;33.90;92.30
74869;DHT22;63419;42.262;12.210;2023-08-08T14:41:58;32.20;92.60
74869;DHT22;63419;42.262;12.210;2023-08-08T14:44:24;29.80;95.40
74869;DHT22;63419;42.262;12.210;2023-08-08T14:46:51;31.70;93.70
74869;DHT22;63419;42.262;12.210;2023-08-08T14:49:17;30.00;94.80
74869;DHT22;63419;42.262;12.210;2023-08-08T14:51:43;29.90;94.50
74869;DHT22;63419;42.262;12.210;2023-08-08T14:54:09;27.80;95.50
74869;DHT22;63419;42.262;12.210;2023-08-08T14:56:35;28.30;95.80
74869;DHT22;63419;42.262;12.210;2023-08-08T14:59:01;29.20;94.90
74869;DHT22;63419;42.262;12.210;2023-08-08T15:01:28;30.40;94.90
74869;DHT22;63419;42.262;12.210;2023-08-08T15:03:56;29.80;94.60
74869;DHT22;63419;42.262;12.210;2023-08-08T15:06:23;29.50;94.60
74869;DHT22;63419;42.262;12.210;2023-08-08T15:08:50;28.20;96.20
74869;DHT22;63419;42.262;12.210;2023-08-08T15:11:16;27.10;98.60
74869;DHT22;63419;42.262;12.210;2023-08-08T15:13:43;26.60;98.40
74869;DHT22;63419;42.262;12.210;2023-08-08T15:16:09;27.50;96.90
74869;DHT22;63419;42.262;12.210;2023-08-08T15:18:35;26.50;99.00
74869;DHT22;63419;42.262;12.210;2023-08-08T15:21:05;25.90;99.20